sensor_id;sensor_type;location;lat;lon;timestamp;P1;durP1;ratioP1;P2;durP2;ratioP2
4323;SDS011;2175;51.018;6.994;2022-09-09T00:00:23;5.43;;;2.20;;
4323;SDS011;2175;51.018;6.994;2022-09-09T00:03:02;6.07;;;2.20;;
4323;SDS011;2175;51.018;6.994;2022-09-09T00:05:44;4.63;;;2.20;;
4323;SDS011;2175;51.018;6.994;2022-09-09T00:11:12;6.97;;;2.10;;
4323;SDS011;2175;51.018;6.994;2022-09-09T00:13:51;5.47;;;2.13;;
4323;SDS011;2175;51.018;6.994;2022-09-09T00:16:25;6.20;;;2.10;;
4323;SDS011;2175;51.018;6.994;2022-09-09T00:19:07;3.73;;;2.10;;
4323;SDS011;2175;51.018;6.994;2022-09-09T00:21:58;5.63;;;1.90;;
4323;SDS011;2175;51.018;6.994;2022-09-09T00:24:38;6.03;;;2.40;;
4323;SDS011;2175;51.018;6.994;2022-09-09T00:27:10;4.80;;;1.70;;
4323;SDS011;2175;51.018;6.994;2022-09-09T00:29:59;5.53;;;1.80;;
4323;SDS011;2175;51.018;6.994;2022-09-09T00:32:37;3.70;;;2.00;;
4323;SDS011;2175;51.018;6.994;2022-09-09T00:35:09;4.63;;;1.93;;
4323;SDS011;2175;51.018;6.994;2022-09-09T00:37:46;5.73;;;2.20;;
4323;SDS011;2175;51.018;6.994;2022-09-09T00:40:29;6.37;;;2.20;;
4323;SDS011;2175;51.018;6.994;2022-09-09T00:43:10;7.37;;;2.13;;
4323;SDS011;2175;51.018;6.994;2022-09-09T00:45:48;10.60;;;2.77;;
4323;SDS011;2175;51.018;6.994;2022-09-09T00:48:43;4.07;;;1.97;;
4323;SDS011;2175;51.018;6.994;2022-09-09T00:56:47;6.80;;;2.27;;
4323;SDS011;2175;51.018;6.994;2022-09-09T01:02:24;4.07;;;2.10;;
4323;SDS011;2175;51.018;6.994;2022-09-09T01:05:13;5.07;;;2.20;;
4323;SDS011;2175;51.018;6.994;2022-09-09T01:07:52;6.03;;;2.03;;
4323;SDS011;2175;51.018;6.994;2022-09-09T01:13:19;3.30;;;2.07;;
4323;SDS011;2175;51.018;6.994;2022-09-09T01:15:59;7.27;;;2.40;;
4323;SDS011;2175;51.018;6.994;2022-09-09T01:27:14;3.20;;;1.60;;
4323;SDS011;2175;51.018;6.994;2022-09-09T01:29:42;5.00;;;1.90;;
4323;SDS011;2175;51.018;6.994;2022-09-09T01:35:11;4.60;;;1.60;;
4323;SDS011;2175;51.018;6.994;2022-09-09T01:37:58;3.13;;;1.40;;
4323;SDS011;2175;51.018;6.994;2022-09-09T01:40:24;2.73;;;1.60;;
4323;SDS011;2175;51.018;6.994;2022-09-09T01:42:51;3.30;;;1.40;;
4323;SDS011;2175;51.018;6.994;2022-09-09T01:45:17;5.97;;;1.90;;
4323;SDS011;2175;51.018;6.994;2022-09-09T01:47:44;6.17;;;2.00;;
4323;SDS011;2175;51.018;6.994;2022-09-09T01:50:11;2.60;;;1.43;;
4323;SDS011;2175;51.018;6.994;2022-09-09T01:52:39;4.87;;;1.67;;
4323;SDS011;2175;51.018;6.994;2022-09-09T01:55:05;4.13;;;2.03;;
4323;SDS011;2175;51.018;6.994;2022-09-09T01:57:51;6.00;;;2.00;;
4323;SDS011;2175;51.018;6.994;2022-09-09T02:00:38;7.20;;;1.97;;
4323;SDS011;2175;51.018;6.994;2022-09-09T02:03:10;5.10;;;1.83;;
4323;SDS011;2175;51.018;6.994;2022-09-09T02:05:40;3.40;;;1.80;;
4323;SDS011;2175;51.018;6.994;2022-09-09T02:08:11;7.33;;;2.63;;
4323;SDS011;2175;51.018;6.994;2022-09-09T02:13:19;3.60;;;1.63;;
4323;SDS011;2175;51.018;6.994;2022-09-09T02:15:53;4.33;;;1.80;;
4323;SDS011;2175;51.018;6.994;2022-09-09T02:18:27;8.03;;;2.63;;
4323;SDS011;2175;51.018;6.994;2022-09-09T02:20:59;8.20;;;1.90;;
4323;SDS011;2175;51.018;6.994;2022-09-09T02:23:27;8.30;;;2.00;;
4323;SDS011;2175;51.018;6.994;2022-09-09T02:25:54;4.13;;;2.03;;
4323;SDS011;2175;51.018;6.994;2022-09-09T02:28:23;3.90;;;1.77;;
4323;SDS011;2175;51.018;6.994;2022-09-09T02:30:52;4.00;;;2.07;;
4323;SDS011;2175;51.018;6.994;2022-09-09T02:33:20;4.80;;;2.17;;
4323;SDS011;2175;51.018;6.994;2022-09-09T02:35:49;5.20;;;1.77;;
4323;SDS011;2175;51.018;6.994;2022-09-09T02:38:17;7.47;;;2.40;;
4323;SDS011;2175;51.018;6.994;2022-09-09T02:40:45;5.10;;;2.00;;
4323;SDS011;2175;51.018;6.994;2022-09-09T02:43:10;4.43;;;1.77;;
4323;SDS011;2175;51.018;6.994;2022-09-09T02:45:38;7.10;;;1.90;;
4323;SDS011;2175;51.018;6.994;2022-09-09T02:56:36;10.40;;;2.13;;
4323;SDS011;2175;51.018;6.994;2022-09-09T02:59:07;4.80;;;1.97;;
4323;SDS011;2175;51.018;6.994;2022-09-09T03:01:33;6.77;;;2.00;;
4323;SDS011;2175;51.018;6.994;2022-09-09T03:04:00;6.20;;;2.10;;
4323;SDS011;2175;51.018;6.994;2022-09-09T03:06:27;3.40;;;1.97;;
4323;SDS011;2175;51.018;6.994;2022-09-09T03:08:53;4.40;;;2.00;;
4323;SDS011;2175;51.018;6.994;2022-09-09T03:11:18;13.00;;;2.30;;
4323;SDS011;2175;51.018;6.994;2022-09-09T03:13:44;6.33;;;2.30;;
4323;SDS011;2175;51.018;6.994;2022-09-09T03:16:10;5.77;;;2.30;;
4323;SDS011;2175;51.018;6.994;2022-09-09T03:18:36;9.03;;;2.50;;
4323;SDS011;2175;51.018;6.994;2022-09-09T03:21:01;5.03;;;2.10;;
4323;SDS011;2175;51.018;6.994;2022-09-09T03:23:27;6.80;;;2.20;;
4323;SDS011;2175;51.018;6.994;2022-09-09T03:25:53;7.60;;;2.47;;
4323;SDS011;2175;51.018;6.994;2022-09-09T03:28:21;5.53;;;2.40;;
4323;SDS011;2175;51.018;6.994;2022-09-09T03:30:48;6.30;;;2.40;;
4323;SDS011;2175;51.018;6.994;2022-09-09T03:33:14;6.37;;;2.30;;
4323;SDS011;2175;51.018;6.994;2022-09-09T03:35:44;5.03;;;2.37;;
4323;SDS011;2175;51.018;6.994;2022-09-09T03:38:12;9.27;;;2.30;;
4323;SDS011;2175;51.018;6.994;2022-09-09T03:40:38;7.93;;;2.43;;
4323;SDS011;2175;51.018;6.994;2022-09-09T03:43:04;8.63;;;2.40;;
4323;SDS011;2175;51.018;6.994;2022-09-09T03:45:29;6.90;;;2.30;;
4323;SDS011;2175;51.018;6.994;2022-09-09T03:47:55;6.93;;;2.03;;
4323;SDS011;2175;51.018;6.994;2022-09-09T03:50:22;6.83;;;2.50;;
4323;SDS011;2175;51.018;6.994;2022-09-09T03:52:48;8.07;;;3.00;;
4323;SDS011;2175;51.018;6.994;2022-09-09T03:55:13;4.10;;;2.03;;
4323;SDS011;2175;51.018;6.994;2022-09-09T03:57:39;6.97;;;2.30;;
4323;SDS011;2175;51.018;6.994;2022-09-09T04:00:05;8.50;;;2.23;;
4323;SDS011;2175;51.018;6.994;2022-09-09T04:02:32;6.33;;;2.20;;
4323;SDS011;2175;51.018;6.994;2022-09-09T04:04:58;5.23;;;1.93;;
4323;SDS011;2175;51.018;6.994;2022-09-09T04:07:24;5.83;;;2.27;;
4323;SDS011;2175;51.018;6.994;2022-09-09T04:09:52;7.57;;;2.60;;
4323;SDS011;2175;51.018;6.994;2022-09-09T04:12:19;7.00;;;2.43;;
4323;SDS011;2175;51.018;6.994;2022-09-09T04:14:46;10.40;;;2.77;;
4323;SDS011;2175;51.018;6.994;2022-09-09T04:17:11;14.43;;;2.87;;
4323;SDS011;2175;51.018;6.994;2022-09-09T04:19:37;7.93;;;2.60;;
4323;SDS011;2175;51.018;6.994;2022-09-09T04:22:02;8.20;;;2.50;;
4323;SDS011;2175;51.018;6.994;2022-09-09T04:24:28;7.93;;;2.37;;
4323;SDS011;2175;51.018;6.994;2022-09-09T04:26:54;8.40;;;2.50;;
4323;SDS011;2175;51.018;6.994;2022-09-09T04:29:20;7.73;;;2.20;;
4323;SDS011;2175;51.018;6.994;2022-09-09T04:31:46;5.03;;;2.10;;
4323;SDS011;2175;51.018;6.994;2022-09-09T04:34:11;5.60;;;2.20;;
4323;SDS011;2175;51.018;6.994;2022-09-09T04:36:37;6.57;;;2.30;;
4323;SDS011;2175;51.018;6.994;2022-09-09T04:39:04;11.40;;;2.77;;
4323;SDS011;2175;51.018;6.994;2022-09-09T04:41:30;5.50;;;2.20;;
4323;SDS011;2175;51.018;6.994;2022-09-09T04:43:56;8.73;;;2.63;;
4323;SDS011;2175;51.018;6.994;2022-09-09T04:46:22;7.17;;;2.50;;
4323;SDS011;2175;51.018;6.994;2022-09-09T04:48:48;6.13;;;2.30;;
4323;SDS011;2175;51.018;6.994;2022-09-09T04:51:15;7.67;;;2.30;;
4323;SDS011;2175;51.018;6.994;2022-09-09T04:53:41;9.37;;;2.50;;
4323;SDS011;2175;51.018;6.994;2022-09-09T04:56:11;8.80;;;2.37;;
4323;SDS011;2175;51.018;6.994;2022-09-09T04:58:38;12.60;;;2.50;;
4323;SDS011;2175;51.018;6.994;2022-09-09T05:01:06;10.30;;;2.40;;
4323;SDS011;2175;51.018;6.994;2022-09-09T05:03:36;5.13;;;2.23;;
4323;SDS011;2175;51.018;6.994;2022-09-09T05:06:06;5.87;;;2.17;;
4323;SDS011;2175;51.018;6.994;2022-09-09T05:08:33;7.40;;;2.50;;
4323;SDS011;2175;51.018;6.994;2022-09-09T05:10:59;7.53;;;2.20;;
4323;SDS011;2175;51.018;6.994;2022-09-09T05:13:26;7.83;;;2.20;;
4323;SDS011;2175;51.018;6.994;2022-09-09T05:15:53;4.63;;;2.40;;
4323;SDS011;2175;51.018;6.994;2022-09-09T05:18:19;11.10;;;2.77;;
4323;SDS011;2175;51.018;6.994;2022-09-09T05:20:45;10.27;;;3.03;;
4323;SDS011;2175;51.018;6.994;2022-09-09T05:23:10;10.97;;;2.87;;
4323;SDS011;2175;51.018;6.994;2022-09-09T05:25:38;6.87;;;2.30;;
4323;SDS011;2175;51.018;6.994;2022-09-09T05:28:05;6.17;;;2.33;;
4323;SDS011;2175;51.018;6.994;2022-09-09T05:30:32;10.10;;;2.40;;
4323;SDS011;2175;51.018;6.994;2022-09-09T05:32:58;7.50;;;2.83;;
4323;SDS011;2175;51.018;6.994;2022-09-09T05:35:24;8.70;;;2.57;;
4323;SDS011;2175;51.018;6.994;2022-09-09T05:37:50;6.27;;;2.50;;
4323;SDS011;2175;51.018;6.994;2022-09-09T05:40:16;7.43;;;2.40;;
4323;SDS011;2175;51.018;6.994;2022-09-09T05:42:41;8.93;;;2.50;;
4323;SDS011;2175;51.018;6.994;2022-09-09T05:45:08;5.67;;;2.30;;
4323;SDS011;2175;51.018;6.994;2022-09-09T05:47:34;5.43;;;2.13;;
4323;SDS011;2175;51.018;6.994;2022-09-09T05:50:00;5.80;;;2.30;;
4323;SDS011;2175;51.018;6.994;2022-09-09T05:52:26;11.20;;;2.67;;
4323;SDS011;2175;51.018;6.994;2022-09-09T05:54:52;9.60;;;2.67;;
4323;SDS011;2175;51.018;6.994;2022-09-09T05:57:20;9.00;;;2.43;;
4323;SDS011;2175;51.018;6.994;2022-09-09T05:59:45;10.83;;;2.90;;
4323;SDS011;2175;51.018;6.994;2022-09-09T06:02:11;9.00;;;2.73;;
4323;SDS011;2175;51.018;6.994;2022-09-09T06:04:38;10.60;;;2.80;;
4323;SDS011;2175;51.018;6.994;2022-09-09T06:07:04;9.77;;;3.03;;
4323;SDS011;2175;51.018;6.994;2022-09-09T06:09:30;8.93;;;2.97;;
4323;SDS011;2175;51.018;6.994;2022-09-09T06:11:56;6.00;;;2.50;;
4323;SDS011;2175;51.018;6.994;2022-09-09T06:14:23;6.10;;;3.20;;
4323;SDS011;2175;51.018;6.994;2022-09-09T06:16:50;12.43;;;2.83;;
4323;SDS011;2175;51.018;6.994;2022-09-09T06:19:16;9.17;;;3.37;;
4323;SDS011;2175;51.018;6.994;2022-09-09T06:21:42;6.77;;;2.83;;
4323;SDS011;2175;51.018;6.994;2022-09-09T06:24:09;6.03;;;2.57;;
4323;SDS011;2175;51.018;6.994;2022-09-09T06:26:37;13.53;;;2.97;;
4323;SDS011;2175;51.018;6.994;2022-09-09T06:29:06;9.23;;;3.07;;
4323;SDS011;2175;51.018;6.994;2022-09-09T06:31:33;7.63;;;2.50;;
4323;SDS011;2175;51.018;6.994;2022-09-09T06:34:02;6.37;;;2.30;;
4323;SDS011;2175;51.018;6.994;2022-09-09T06:36:30;5.70;;;2.33;;
4323;SDS011;2175;51.018;6.994;2022-09-09T06:38:58;11.50;;;2.33;;
4323;SDS011;2175;51.018;6.994;2022-09-09T06:41:25;7.97;;;2.70;;
4323;SDS011;2175;51.018;6.994;2022-09-09T06:43:52;7.23;;;2.53;;
4323;SDS011;2175;51.018;6.994;2022-09-09T06:46:19;6.40;;;2.20;;
4323;SDS011;2175;51.018;6.994;2022-09-09T06:48:52;8.90;;;2.67;;
4323;SDS011;2175;51.018;6.994;2022-09-09T06:51:20;7.60;;;2.43;;
4323;SDS011;2175;51.018;6.994;2022-09-09T06:53:49;7.47;;;2.60;;
4323;SDS011;2175;51.018;6.994;2022-09-09T06:58:42;5.67;;;2.30;;
4323;SDS011;2175;51.018;6.994;2022-09-09T07:01:09;9.37;;;3.00;;
4323;SDS011;2175;51.018;6.994;2022-09-09T07:03:37;5.00;;;2.10;;
4323;SDS011;2175;51.018;6.994;2022-09-09T07:06:04;5.73;;;2.30;;
4323;SDS011;2175;51.018;6.994;2022-09-09T07:08:31;5.23;;;2.13;;
4323;SDS011;2175;51.018;6.994;2022-09-09T07:11:03;7.33;;;2.70;;
4323;SDS011;2175;51.018;6.994;2022-09-09T07:13:30;4.60;;;2.27;;
4323;SDS011;2175;51.018;6.994;2022-09-09T07:16:07;10.63;;;3.00;;
4323;SDS011;2175;51.018;6.994;2022-09-09T07:18:34;9.43;;;3.20;;
4323;SDS011;2175;51.018;6.994;2022-09-09T07:21:01;7.07;;;1.87;;
4323;SDS011;2175;51.018;6.994;2022-09-09T07:23:28;9.43;;;2.20;;
4323;SDS011;2175;51.018;6.994;2022-09-09T07:25:54;5.37;;;2.10;;
4323;SDS011;2175;51.018;6.994;2022-09-09T07:28:21;5.30;;;2.10;;
4323;SDS011;2175;51.018;6.994;2022-09-09T07:30:55;6.50;;;2.47;;
4323;SDS011;2175;51.018;6.994;2022-09-09T07:33:22;6.17;;;2.33;;
4323;SDS011;2175;51.018;6.994;2022-09-09T07:35:49;7.17;;;2.40;;
4323;SDS011;2175;51.018;6.994;2022-09-09T07:38:15;9.47;;;2.23;;
4323;SDS011;2175;51.018;6.994;2022-09-09T07:40:41;8.87;;;2.40;;
4323;SDS011;2175;51.018;6.994;2022-09-09T07:43:06;6.80;;;2.00;;
4323;SDS011;2175;51.018;6.994;2022-09-09T07:45:33;10.20;;;2.40;;
4323;SDS011;2175;51.018;6.994;2022-09-09T07:48:00;11.60;;;2.37;;
4323;SDS011;2175;51.018;6.994;2022-09-09T07:50:25;8.70;;;2.83;;
4323;SDS011;2175;51.018;6.994;2022-09-09T07:52:52;7.60;;;2.87;;
4323;SDS011;2175;51.018;6.994;2022-09-09T07:55:18;10.17;;;2.73;;
4323;SDS011;2175;51.018;6.994;2022-09-09T07:57:45;7.50;;;2.10;;
4323;SDS011;2175;51.018;6.994;2022-09-09T08:00:11;8.37;;;2.63;;
4323;SDS011;2175;51.018;6.994;2022-09-09T08:02:37;7.50;;;2.50;;
4323;SDS011;2175;51.018;6.994;2022-09-09T08:05:02;7.00;;;2.30;;
4323;SDS011;2175;51.018;6.994;2022-09-09T08:07:29;6.23;;;2.33;;
4323;SDS011;2175;51.018;6.994;2022-09-09T08:09:55;8.80;;;2.70;;
4323;SDS011;2175;51.018;6.994;2022-09-09T08:12:21;11.20;;;2.57;;
4323;SDS011;2175;51.018;6.994;2022-09-09T08:14:46;7.93;;;2.27;;
4323;SDS011;2175;51.018;6.994;2022-09-09T08:17:13;7.00;;;2.50;;
4323;SDS011;2175;51.018;6.994;2022-09-09T08:19:39;4.93;;;2.03;;
4323;SDS011;2175;51.018;6.994;2022-09-09T08:22:04;5.27;;;1.90;;
4323;SDS011;2175;51.018;6.994;2022-09-09T08:24:30;8.07;;;2.53;;
4323;SDS011;2175;51.018;6.994;2022-09-09T08:26:56;10.37;;;2.80;;
4323;SDS011;2175;51.018;6.994;2022-09-09T08:29:22;9.47;;;2.57;;
4323;SDS011;2175;51.018;6.994;2022-09-09T08:31:49;10.10;;;2.90;;
4323;SDS011;2175;51.018;6.994;2022-09-09T08:34:17;8.97;;;2.43;;
4323;SDS011;2175;51.018;6.994;2022-09-09T08:36:46;6.80;;;2.13;;
4323;SDS011;2175;51.018;6.994;2022-09-09T08:39:14;12.00;;;2.40;;
4323;SDS011;2175;51.018;6.994;2022-09-09T08:41:51;8.03;;;2.47;;
4323;SDS011;2175;51.018;6.994;2022-09-09T08:44:50;7.53;;;2.10;;
4323;SDS011;2175;51.018;6.994;2022-09-09T08:47:42;7.50;;;2.10;;
4323;SDS011;2175;51.018;6.994;2022-09-09T08:50:21;6.87;;;2.23;;
4323;SDS011;2175;51.018;6.994;2022-09-09T08:53:01;4.50;;;2.20;;
4323;SDS011;2175;51.018;6.994;2022-09-09T08:55:47;12.63;;;3.07;;
4323;SDS011;2175;51.018;6.994;2022-09-09T08:58:26;7.07;;;2.67;;
4323;SDS011;2175;51.018;6.994;2022-09-09T09:11:47;5.47;;;2.00;;
4323;SDS011;2175;51.018;6.994;2022-09-09T09:14:25;8.80;;;2.17;;
4323;SDS011;2175;51.018;6.994;2022-09-09T09:19:23;5.77;;;1.70;;
4323;SDS011;2175;51.018;6.994;2022-09-09T09:21:59;6.20;;;2.13;;
4323;SDS011;2175;51.018;6.994;2022-09-09T09:27:13;8.60;;;2.07;;
4323;SDS011;2175;51.018;6.994;2022-09-09T09:29:42;6.80;;;1.77;;
4323;SDS011;2175;51.018;6.994;2022-09-09T09:32:11;9.30;;;2.50;;
4323;SDS011;2175;51.018;6.994;2022-09-09T09:34:41;4.40;;;1.90;;
4323;SDS011;2175;51.018;6.994;2022-09-09T09:37:12;8.97;;;2.50;;
4323;SDS011;2175;51.018;6.994;2022-09-09T09:39:44;5.30;;;2.20;;
4323;SDS011;2175;51.018;6.994;2022-09-09T09:42:14;5.97;;;2.17;;
4323;SDS011;2175;51.018;6.994;2022-09-09T09:44:42;9.70;;;2.03;;
4323;SDS011;2175;51.018;6.994;2022-09-09T09:47:12;5.10;;;1.93;;
4323;SDS011;2175;51.018;6.994;2022-09-09T09:49:55;7.37;;;2.07;;
4323;SDS011;2175;51.018;6.994;2022-09-09T09:52:25;7.83;;;2.27;;
4323;SDS011;2175;51.018;6.994;2022-09-09T09:54:53;6.17;;;1.77;;
4323;SDS011;2175;51.018;6.994;2022-09-09T09:57:25;3.43;;;1.57;;
4323;SDS011;2175;51.018;6.994;2022-09-09T10:00:00;9.30;;;1.80;;
4323;SDS011;2175;51.018;6.994;2022-09-09T10:02:39;4.00;;;1.70;;
4323;SDS011;2175;51.018;6.994;2022-09-09T10:05:18;4.97;;;1.70;;
4323;SDS011;2175;51.018;6.994;2022-09-09T10:07:45;3.67;;;1.90;;
4323;SDS011;2175;51.018;6.994;2022-09-09T10:10:13;5.00;;;2.00;;
4323;SDS011;2175;51.018;6.994;2022-09-09T10:12:59;10.43;;;2.13;;
4323;SDS011;2175;51.018;6.994;2022-09-09T10:15:46;4.10;;;1.50;;
4323;SDS011;2175;51.018;6.994;2022-09-09T10:18:38;6.90;;;1.80;;
4323;SDS011;2175;51.018;6.994;2022-09-09T10:27:00;4.70;;;1.57;;
4323;SDS011;2175;51.018;6.994;2022-09-09T10:57:42;4.20;;;1.60;;
4323;SDS011;2175;51.018;6.994;2022-09-09T11:00:21;4.37;;;1.63;;
4323;SDS011;2175;51.018;6.994;2022-09-09T11:02:49;5.60;;;1.90;;
4323;SDS011;2175;51.018;6.994;2022-09-09T11:05:35;6.37;;;2.13;;
4323;SDS011;2175;51.018;6.994;2022-09-09T11:10:54;5.17;;;1.80;;
4323;SDS011;2175;51.018;6.994;2022-09-09T11:16:43;6.77;;;2.10;;
4323;SDS011;2175;51.018;6.994;2022-09-09T11:19:35;4.20;;;1.73;;
4323;SDS011;2175;51.018;6.994;2022-09-09T11:30:25;7.43;;;1.83;;
4323;SDS011;2175;51.018;6.994;2022-09-09T11:44:37;4.50;;;1.80;;
4323;SDS011;2175;51.018;6.994;2022-09-09T11:47:03;5.90;;;1.90;;
4323;SDS011;2175;51.018;6.994;2022-09-09T11:49:41;4.73;;;1.83;;
4323;SDS011;2175;51.018;6.994;2022-09-09T11:52:10;3.50;;;1.80;;
4323;SDS011;2175;51.018;6.994;2022-09-09T11:54:46;7.47;;;1.90;;
4323;SDS011;2175;51.018;6.994;2022-09-09T11:57:24;6.73;;;1.80;;
4323;SDS011;2175;51.018;6.994;2022-09-09T11:59:55;5.77;;;1.87;;
4323;SDS011;2175;51.018;6.994;2022-09-09T12:02:25;6.60;;;1.80;;
4323;SDS011;2175;51.018;6.994;2022-09-09T12:04:57;3.10;;;1.40;;
4323;SDS011;2175;51.018;6.994;2022-09-09T12:13:08;8.83;;;1.60;;
4323;SDS011;2175;51.018;6.994;2022-09-09T12:15:51;5.77;;;2.20;;
4323;SDS011;2175;51.018;6.994;2022-09-09T12:23:52;10.63;;;2.00;;
4323;SDS011;2175;51.018;6.994;2022-09-09T12:34:37;8.53;;;1.90;;
4323;SDS011;2175;51.018;6.994;2022-09-09T12:39:56;2.83;;;1.43;;
4323;SDS011;2175;51.018;6.994;2022-09-09T12:42:24;4.23;;;1.50;;
4323;SDS011;2175;51.018;6.994;2022-09-09T12:44:54;5.40;;;1.70;;
4323;SDS011;2175;51.018;6.994;2022-09-09T12:47:41;4.80;;;1.60;;
4323;SDS011;2175;51.018;6.994;2022-09-09T12:50:21;4.50;;;1.80;;
4323;SDS011;2175;51.018;6.994;2022-09-09T12:52:50;5.60;;;2.03;;
4323;SDS011;2175;51.018;6.994;2022-09-09T12:55:20;5.73;;;1.77;;
4323;SDS011;2175;51.018;6.994;2022-09-09T12:57:50;5.10;;;1.90;;
4323;SDS011;2175;51.018;6.994;2022-09-09T13:00:21;2.90;;;1.50;;
4323;SDS011;2175;51.018;6.994;2022-09-09T13:02:50;3.30;;;1.63;;
4323;SDS011;2175;51.018;6.994;2022-09-09T13:05:24;5.00;;;2.03;;
4323;SDS011;2175;51.018;6.994;2022-09-09T13:07:52;9.60;;;2.70;;
4323;SDS011;2175;51.018;6.994;2022-09-09T13:10:27;4.30;;;1.73;;
4323;SDS011;2175;51.018;6.994;2022-09-09T13:12:56;8.63;;;1.97;;
4323;SDS011;2175;51.018;6.994;2022-09-09T13:15:23;5.00;;;1.80;;
4323;SDS011;2175;51.018;6.994;2022-09-09T13:17:56;3.97;;;2.00;;
4323;SDS011;2175;51.018;6.994;2022-09-09T13:20:23;4.53;;;2.10;;
4323;SDS011;2175;51.018;6.994;2022-09-09T13:22:50;5.90;;;1.50;;
4323;SDS011;2175;51.018;6.994;2022-09-09T13:25:19;3.40;;;1.50;;
4323;SDS011;2175;51.018;6.994;2022-09-09T13:27:55;5.90;;;1.90;;
4323;SDS011;2175;51.018;6.994;2022-09-09T13:33:05;3.30;;;1.93;;
4323;SDS011;2175;51.018;6.994;2022-09-09T13:35:52;6.27;;;2.20;;
4323;SDS011;2175;51.018;6.994;2022-09-09T13:38:21;9.10;;;2.03;;
4323;SDS011;2175;51.018;6.994;2022-09-09T13:41:06;4.90;;;1.80;;
4323;SDS011;2175;51.018;6.994;2022-09-09T13:43:34;5.67;;;2.03;;
4323;SDS011;2175;51.018;6.994;2022-09-09T13:48:55;6.10;;;2.00;;
4323;SDS011;2175;51.018;6.994;2022-09-09T13:51:35;4.47;;;1.97;;
4323;SDS011;2175;51.018;6.994;2022-09-09T13:54:08;3.97;;;1.90;;
4323;SDS011;2175;51.018;6.994;2022-09-09T13:56:36;3.30;;;1.80;;
4323;SDS011;2175;51.018;6.994;2022-09-09T13:59:03;4.93;;;1.97;;
4323;SDS011;2175;51.018;6.994;2022-09-09T14:01:30;4.80;;;2.00;;
4323;SDS011;2175;51.018;6.994;2022-09-09T14:03:56;7.97;;;2.20;;
4323;SDS011;2175;51.018;6.994;2022-09-09T14:06:22;7.70;;;2.10;;
4323;SDS011;2175;51.018;6.994;2022-09-09T14:08:51;4.10;;;1.50;;
4323;SDS011;2175;51.018;6.994;2022-09-09T14:11:18;4.67;;;1.83;;
4323;SDS011;2175;51.018;6.994;2022-09-09T14:13:44;3.73;;;1.50;;
4323;SDS011;2175;51.018;6.994;2022-09-09T14:16:09;3.17;;;1.43;;
4323;SDS011;2175;51.018;6.994;2022-09-09T14:18:35;10.43;;;1.77;;
4323;SDS011;2175;51.018;6.994;2022-09-09T14:21:02;5.20;;;1.63;;
4323;SDS011;2175;51.018;6.994;2022-09-09T14:23:28;6.53;;;1.90;;
4323;SDS011;2175;51.018;6.994;2022-09-09T14:25:54;10.43;;;2.00;;
4323;SDS011;2175;51.018;6.994;2022-09-09T14:28:20;9.57;;;2.30;;
4323;SDS011;2175;51.018;6.994;2022-09-09T14:30:46;6.50;;;2.40;;
4323;SDS011;2175;51.018;6.994;2022-09-09T14:33:13;6.00;;;1.80;;
4323;SDS011;2175;51.018;6.994;2022-09-09T14:35:41;7.27;;;1.93;;
4323;SDS011;2175;51.018;6.994;2022-09-09T14:38:07;6.00;;;1.90;;
4323;SDS011;2175;51.018;6.994;2022-09-09T14:40:34;6.83;;;2.13;;
4323;SDS011;2175;51.018;6.994;2022-09-09T14:43:00;5.17;;;1.70;;
4323;SDS011;2175;51.018;6.994;2022-09-09T14:45:26;6.53;;;2.20;;
4323;SDS011;2175;51.018;6.994;2022-09-09T14:47:51;6.53;;;2.30;;
4323;SDS011;2175;51.018;6.994;2022-09-09T14:50:18;4.43;;;1.93;;
4323;SDS011;2175;51.018;6.994;2022-09-09T14:52:44;3.87;;;1.60;;
4323;SDS011;2175;51.018;6.994;2022-09-09T14:55:10;4.47;;;1.40;;
4323;SDS011;2175;51.018;6.994;2022-09-09T14:57:36;4.60;;;1.50;;
4323;SDS011;2175;51.018;6.994;2022-09-09T15:00:04;3.03;;;1.53;;
4323;SDS011;2175;51.018;6.994;2022-09-09T15:02:30;2.17;;;1.37;;
4323;SDS011;2175;51.018;6.994;2022-09-09T15:04:56;3.30;;;1.50;;
4323;SDS011;2175;51.018;6.994;2022-09-09T15:07:23;3.63;;;1.40;;
4323;SDS011;2175;51.018;6.994;2022-09-09T15:09:55;3.03;;;1.60;;
4323;SDS011;2175;51.018;6.994;2022-09-09T15:12:20;2.70;;;1.40;;
4323;SDS011;2175;51.018;6.994;2022-09-09T15:14:46;4.00;;;1.80;;
4323;SDS011;2175;51.018;6.994;2022-09-09T15:17:13;3.10;;;1.60;;
4323;SDS011;2175;51.018;6.994;2022-09-09T15:19:39;3.63;;;1.40;;
4323;SDS011;2175;51.018;6.994;2022-09-09T15:22:05;3.97;;;1.57;;
4323;SDS011;2175;51.018;6.994;2022-09-09T15:24:31;2.20;;;1.50;;
4323;SDS011;2175;51.018;6.994;2022-09-09T15:26:57;3.50;;;1.87;;
4323;SDS011;2175;51.018;6.994;2022-09-09T15:29:23;4.80;;;1.93;;
4323;SDS011;2175;51.018;6.994;2022-09-09T15:31:50;3.33;;;1.53;;
4323;SDS011;2175;51.018;6.994;2022-09-09T15:34:20;2.33;;;1.47;;
4323;SDS011;2175;51.018;6.994;2022-09-09T15:36:46;2.80;;;1.50;;
4323;SDS011;2175;51.018;6.994;2022-09-09T15:39:13;3.77;;;1.53;;
4323;SDS011;2175;51.018;6.994;2022-09-09T15:41:46;5.20;;;1.60;;
4323;SDS011;2175;51.018;6.994;2022-09-09T15:44:13;5.50;;;1.63;;
4323;SDS011;2175;51.018;6.994;2022-09-09T15:46:43;5.27;;;2.00;;
4323;SDS011;2175;51.018;6.994;2022-09-09T15:49:22;3.30;;;1.70;;
4323;SDS011;2175;51.018;6.994;2022-09-09T15:51:52;4.90;;;1.90;;
4323;SDS011;2175;51.018;6.994;2022-09-09T15:54:20;3.73;;;1.60;;
4323;SDS011;2175;51.018;6.994;2022-09-09T15:56:49;3.40;;;1.70;;
4323;SDS011;2175;51.018;6.994;2022-09-09T15:59:23;3.23;;;1.50;;
4323;SDS011;2175;51.018;6.994;2022-09-09T16:01:49;5.00;;;1.63;;
4323;SDS011;2175;51.018;6.994;2022-09-09T16:04:18;8.37;;;1.67;;
4323;SDS011;2175;51.018;6.994;2022-09-09T16:06:51;6.37;;;1.87;;
4323;SDS011;2175;51.018;6.994;2022-09-09T16:09:18;6.13;;;2.03;;
4323;SDS011;2175;51.018;6.994;2022-09-09T16:11:44;5.40;;;1.90;;
4323;SDS011;2175;51.018;6.994;2022-09-09T16:14:12;3.27;;;1.80;;
4323;SDS011;2175;51.018;6.994;2022-09-09T16:16:38;4.97;;;1.67;;
4323;SDS011;2175;51.018;6.994;2022-09-09T16:19:08;2.77;;;1.50;;
4323;SDS011;2175;51.018;6.994;2022-09-09T16:21:42;7.03;;;1.63;;
4323;SDS011;2175;51.018;6.994;2022-09-09T16:24:09;1.80;;;1.30;;
4323;SDS011;2175;51.018;6.994;2022-09-09T16:26:37;1.63;;;1.20;;
4323;SDS011;2175;51.018;6.994;2022-09-09T16:29:04;3.37;;;1.60;;
4323;SDS011;2175;51.018;6.994;2022-09-09T16:31:30;2.40;;;1.57;;
4323;SDS011;2175;51.018;6.994;2022-09-09T16:33:57;3.53;;;1.40;;
4323;SDS011;2175;51.018;6.994;2022-09-09T16:36:23;3.70;;;1.50;;
4323;SDS011;2175;51.018;6.994;2022-09-09T16:38:53;2.93;;;1.40;;
4323;SDS011;2175;51.018;6.994;2022-09-09T16:41:20;4.30;;;1.50;;
4323;SDS011;2175;51.018;6.994;2022-09-09T16:43:46;3.63;;;1.67;;
4323;SDS011;2175;51.018;6.994;2022-09-09T16:46:18;5.03;;;1.97;;
4323;SDS011;2175;51.018;6.994;2022-09-09T16:48:45;5.00;;;1.80;;
4323;SDS011;2175;51.018;6.994;2022-09-09T16:51:13;3.07;;;1.90;;
4323;SDS011;2175;51.018;6.994;2022-09-09T16:53:41;4.03;;;1.70;;
4323;SDS011;2175;51.018;6.994;2022-09-09T16:56:08;5.70;;;2.20;;
4323;SDS011;2175;51.018;6.994;2022-09-09T16:58:35;4.33;;;1.70;;
4323;SDS011;2175;51.018;6.994;2022-09-09T17:01:02;5.53;;;2.13;;
4323;SDS011;2175;51.018;6.994;2022-09-09T17:03:28;4.20;;;1.93;;
4323;SDS011;2175;51.018;6.994;2022-09-09T17:05:54;6.10;;;1.80;;
4323;SDS011;2175;51.018;6.994;2022-09-09T17:08:19;8.40;;;1.87;;
4323;SDS011;2175;51.018;6.994;2022-09-09T17:10:45;4.73;;;1.90;;
4323;SDS011;2175;51.018;6.994;2022-09-09T17:13:12;5.50;;;2.43;;
4323;SDS011;2175;51.018;6.994;2022-09-09T17:15:41;5.83;;;1.90;;
4323;SDS011;2175;51.018;6.994;2022-09-09T17:18:11;4.00;;;1.83;;
4323;SDS011;2175;51.018;6.994;2022-09-09T17:20:38;4.20;;;1.93;;
4323;SDS011;2175;51.018;6.994;2022-09-09T17:23:05;5.00;;;1.90;;
4323;SDS011;2175;51.018;6.994;2022-09-09T17:25:31;9.70;;;2.30;;
4323;SDS011;2175;51.018;6.994;2022-09-09T17:27:57;5.07;;;2.10;;
4323;SDS011;2175;51.018;6.994;2022-09-09T17:30:23;5.97;;;2.43;;
4323;SDS011;2175;51.018;6.994;2022-09-09T17:32:49;10.27;;;2.47;;
4323;SDS011;2175;51.018;6.994;2022-09-09T17:35:14;5.47;;;2.10;;
4323;SDS011;2175;51.018;6.994;2022-09-09T17:37:40;7.63;;;2.47;;
4323;SDS011;2175;51.018;6.994;2022-09-09T17:40:06;7.57;;;2.47;;
4323;SDS011;2175;51.018;6.994;2022-09-09T17:42:34;3.60;;;2.20;;
4323;SDS011;2175;51.018;6.994;2022-09-09T17:45:00;5.20;;;2.10;;
4323;SDS011;2175;51.018;6.994;2022-09-09T17:47:26;7.27;;;2.63;;
4323;SDS011;2175;51.018;6.994;2022-09-09T17:49:53;7.80;;;2.73;;
4323;SDS011;2175;51.018;6.994;2022-09-09T17:52:18;5.33;;;2.87;;